createdAt,value
2018-07-27T06:32:45.963Z,14.70
2018-07-27T06:35:15.916Z,15.00
2018-07-27T06:45:33.100Z,13.00
2018-07-27T06:48:02.260Z,14.00
2018-07-27T06:50:31.203Z,12.25
2018-07-27T06:55:31.260Z,11.40
2018-07-27T06:58:00.756Z,11.40
2018-07-27T07:00:37.262Z,10.20
2018-07-27T07:03:06.110Z,11.30
2018-07-27T07:08:02.800Z,10.83
2018-07-27T07:10:32.004Z,10.70
2018-07-27T07:13:00.904Z,10.00
2018-07-27T07:15:38.814Z,9.30
2018-07-27T07:18:07.882Z,8.63
2018-07-27T07:20:36.978Z,8.10
2018-07-27T07:23:12.507Z,8.57
2018-07-27T07:25:44.634Z,8.03
2018-07-27T07:28:15.803Z,9.17
2018-07-27T07:30:45.236Z,8.63
2018-07-27T07:33:14.038Z,8.30
2018-07-27T07:35:42.864Z,9.27
2018-07-27T07:38:12.776Z,8.40
2018-07-27T07:40:42.022Z,8.60
2018-07-27T07:43:10.996Z,9.33
2018-07-27T07:45:39.791Z,8.37
2018-07-27T07:48:08.339Z,7.97
2018-07-27T07:50:37.156Z,8.43
2018-07-27T07:53:06.517Z,8.73
2018-07-27T07:55:35.516Z,8.13
2018-07-27T07:58:09.525Z,7.80
2018-07-27T08:00:38.700Z,6.77
2018-07-27T08:03:07.878Z,7.67
2018-07-27T08:05:36.761Z,5.63
2018-07-27T08:08:06.036Z,5.60
2018-07-27T08:10:35.428Z,5.20
2018-07-27T08:13:04.736Z,5.17
2018-07-27T08:17:03.542Z,5.60
2018-07-27T08:19:32.290Z,5.37
2018-07-27T08:22:01.614Z,5.43
2018-07-27T08:24:30.376Z,6.00
2018-07-27T08:27:00.650Z,5.57
2018-07-27T08:29:31.570Z,5.20
2018-07-27T08:32:01.111Z,5.00
2018-07-27T08:34:30.192Z,5.50
2018-07-27T08:36:58.948Z,5.47
2018-07-27T08:39:31.330Z,6.27
2018-07-27T08:42:00.228Z,6.50
2018-07-27T08:44:31.294Z,6.20
2018-07-27T08:47:06.419Z,6.20
2018-07-27T08:49:35.934Z,5.53
2018-07-27T08:52:04.530Z,6.03
2018-07-27T08:54:33.431Z,6.27
2018-07-27T08:57:02.696Z,6.57
2018-07-27T08:59:31.769Z,6.00
2018-07-27T09:02:00.666Z,6.40
2018-07-27T09:04:30.386Z,6.50
2018-07-27T09:06:59.269Z,5.97
2018-07-27T09:09:28.064Z,6.60
2018-07-27T09:11:57.006Z,6.60
2018-07-27T09:14:29.476Z,6.17
2018-07-27T09:16:58.448Z,5.50
2018-07-27T09:19:27.468Z,5.90
2018-07-27T09:21:56.212Z,6.67
2018-07-27T09:24:25.410Z,6.73
2018-07-27T09:26:54.173Z,6.17
2018-07-27T09:29:22.976Z,6.23
2018-07-27T09:31:52.035Z,5.70
2018-07-27T09:35:50.469Z,6.17
2018-07-27T09:38:19.042Z,6.40
2018-07-27T09:40:48.802Z,6.50
2018-07-27T09:43:18.225Z,6.80
2018-07-27T09:45:46.732Z,5.90
2018-07-27T09:48:15.424Z,6.20
2018-07-27T09:50:44.860Z,6.63
2018-07-27T09:53:13.964Z,6.17
2018-07-27T09:55:43.246Z,7.27
2018-07-27T09:58:11.955Z,5.80
2018-07-27T10:00:45.755Z,5.20
2018-07-27T10:03:14.248Z,6.33
2018-07-27T10:05:42.861Z,6.03
2018-07-27T10:08:11.724Z,6.80
2018-07-27T10:10:40.318Z,5.77
2018-07-27T10:13:08.946Z,5.60
2018-07-27T10:15:37.462Z,5.77
2018-07-27T10:18:06.209Z,5.80
2018-07-27T10:20:34.686Z,6.10
2018-07-27T10:23:03.228Z,6.17
2018-07-27T10:25:31.838Z,5.70
2018-07-27T10:28:00.928Z,6.13
2018-07-27T10:30:30.024Z,5.37
2018-07-27T10:32:58.517Z,6.53
2018-07-27T10:35:27.049Z,6.07
2018-07-27T10:37:55.645Z,6.23
2018-07-27T10:40:24.378Z,6.33
2018-07-27T10:42:53.329Z,6.17
2018-07-27T10:45:23.416Z,6.07
2018-07-27T10:47:53.648Z,5.60
2018-07-27T10:50:24.382Z,5.37
2018-07-27T10:52:53.540Z,4.90
2018-07-27T10:55:30.603Z,4.57
2018-07-27T10:58:03.962Z,4.33
2018-07-27T11:00:37.704Z,4.20
2018-07-27T11:03:06.403Z,5.03
2018-07-27T11:08:21.160Z,5.80
2018-07-27T11:13:43.022Z,5.00
2018-07-27T11:16:12.994Z,5.07
2018-07-27T11:18:44.019Z,4.60
2018-07-27T11:21:13.061Z,4.67
2018-07-27T11:26:31.148Z,6.10
2018-07-27T11:29:05.420Z,7.30
2018-07-27T11:31:34.079Z,5.10
2018-07-27T11:34:05.304Z,5.70
2018-07-27T11:36:37.144Z,5.70
2018-07-27T11:41:59.688Z,4.40
2018-07-27T11:44:31.477Z,5.00
2018-07-27T11:47:03.412Z,5.63
2018-07-27T11:49:33.449Z,4.57
2018-07-27T11:52:03.121Z,5.20
2018-07-27T11:54:43.616Z,5.80
2018-07-27T11:57:14.022Z,5.00
2018-07-27T11:59:43.147Z,5.20
2018-07-27T12:03:42.532Z,6.03
2018-07-27T12:06:12.148Z,6.00
2018-07-27T12:08:40.732Z,5.27
2018-07-27T12:11:09.217Z,5.50
2018-07-27T12:13:37.696Z,6.43
2018-07-27T12:16:06.355Z,5.80
2018-07-27T12:18:34.884Z,6.30
2018-07-27T12:21:03.495Z,5.90
2018-07-27T12:23:31.997Z,6.07
2018-07-27T12:26:00.464Z,6.10
2018-07-27T12:28:28.963Z,5.90
2018-07-27T12:30:57.456Z,5.53
2018-07-27T12:33:25.891Z,5.80
2018-07-27T12:35:54.372Z,5.30
2018-07-27T12:38:22.884Z,5.53
2018-07-27T12:40:52.324Z,5.70
2018-07-27T12:43:20.846Z,5.50
2018-07-27T12:45:49.340Z,5.67
2018-07-27T12:48:17.797Z,6.50
2018-07-27T12:50:46.292Z,6.30
2018-07-27T12:53:14.917Z,8.57
2018-07-27T12:55:43.383Z,8.90
2018-07-27T12:58:11.854Z,9.27
2018-07-27T13:00:40.384Z,8.20
2018-07-27T13:03:08.916Z,8.00
2018-07-27T13:05:37.428Z,6.10
2018-07-27T13:08:05.976Z,5.63
2018-07-27T13:10:34.798Z,5.50
2018-07-27T13:13:03.309Z,5.90
2018-07-27T13:15:31.816Z,5.63
2018-07-27T13:18:00.313Z,5.20
2018-07-27T13:21:02.746Z,4.90
2018-07-27T13:23:31.216Z,6.03
2018-07-27T13:28:44.435Z,5.20
2018-07-27T13:31:13.419Z,5.60
2018-07-27T13:33:53.210Z,5.13
2018-07-27T13:36:21.682Z,5.77
2018-07-27T13:38:50.223Z,5.20
2018-07-27T13:41:18.708Z,5.20
2018-07-27T13:43:47.217Z,6.23
2018-07-27T13:46:15.786Z,5.17
2018-07-27T13:48:44.385Z,5.10
2018-07-27T13:51:12.963Z,5.40
2018-07-27T13:53:41.519Z,5.60
2018-07-27T13:56:10.170Z,4.97
2018-07-27T13:58:38.729Z,4.70
2018-07-27T14:01:07.414Z,5.60
2018-07-27T14:03:36.031Z,5.23
2018-07-27T14:06:04.505Z,5.00
2018-07-27T14:08:32.663Z,5.93
2018-07-27T14:11:01.153Z,5.30
2018-07-27T14:13:29.679Z,5.20
2018-07-27T14:15:58.856Z,5.33
2018-07-27T14:18:27.416Z,5.53
2018-07-27T14:20:55.909Z,5.47
2018-07-27T14:23:24.096Z,5.70
2018-07-27T14:25:58.986Z,6.00
2018-07-27T14:28:27.709Z,4.33
2018-07-27T14:32:25.528Z,6.00
2018-07-27T14:34:54.189Z,5.07
2018-07-27T14:37:22.776Z,7.33
2018-07-27T14:39:51.259Z,5.93
2018-07-27T14:42:19.860Z,5.90
2018-07-27T14:44:48.405Z,5.97
2018-07-27T14:47:16.564Z,5.17
2018-07-27T14:49:45.265Z,6.37
2018-07-27T14:52:14.082Z,5.33
2018-07-27T14:54:42.790Z,6.70
2018-07-27T14:57:11.525Z,6.23
2018-07-27T14:59:40.109Z,5.97
2018-07-27T15:02:09.097Z,6.40
2018-07-27T15:04:37.810Z,5.73
2018-07-27T15:07:06.555Z,6.70
2018-07-27T15:09:35.333Z,5.90
2018-07-27T15:12:04.327Z,5.37
2018-07-27T15:14:33.429Z,5.90
2018-07-27T15:17:02.258Z,5.20
2018-07-27T15:19:31.381Z,5.30
2018-07-27T15:22:00.351Z,5.47
2018-07-27T15:24:29.575Z,5.87
2018-07-27T15:26:58.755Z,5.37
2018-07-27T15:29:27.638Z,5.90
2018-07-27T15:31:56.745Z,5.87
2018-07-27T15:34:25.458Z,5.73
2018-07-27T15:36:55.862Z,5.57
2018-07-27T15:39:25.332Z,5.20
2018-07-27T15:41:53.922Z,6.27
2018-07-27T15:44:23.048Z,6.03
2018-07-27T15:46:52.119Z,6.57
2018-07-27T15:49:20.902Z,6.20
2018-07-27T15:51:49.679Z,6.50
2018-07-27T15:54:18.258Z,6.80
2018-07-27T15:56:47.268Z,6.43
2018-07-27T15:59:16.781Z,6.23
2018-07-27T16:01:46.075Z,7.03
2018-07-27T16:04:15.045Z,6.87
2018-07-27T16:06:44.044Z,6.17
2018-07-27T16:09:13.424Z,6.60
2018-07-27T16:11:42.133Z,6.70
2018-07-27T16:14:10.734Z,7.00
2018-07-27T16:16:39.675Z,7.47
2018-07-27T16:19:08.693Z,6.70
2018-07-27T16:21:37.585Z,7.40
2018-07-27T16:24:06.617Z,9.00
2018-07-27T16:26:35.207Z,7.63
2018-07-27T16:29:04.034Z,7.20
2018-07-27T16:31:32.881Z,7.80
2018-07-27T16:34:01.762Z,7.90
2018-07-27T16:36:30.609Z,7.00
2018-07-27T16:38:59.201Z,6.63
2018-07-27T16:41:27.681Z,7.30
2018-07-27T16:43:56.516Z,7.47
2018-07-27T16:46:25.493Z,8.10
2018-07-27T16:48:54.300Z,7.97
2018-07-27T16:51:23.079Z,8.10
2018-07-27T16:53:51.981Z,7.07
2018-07-27T16:56:20.986Z,7.67
2018-07-27T16:58:49.960Z,8.20
2018-07-27T17:01:18.850Z,8.03
2018-07-27T17:03:47.654Z,8.10
2018-07-27T17:06:16.516Z,7.20
2018-07-27T17:11:13.379Z,7.97
2018-07-27T17:13:42.212Z,7.40
2018-07-27T17:16:15.413Z,7.65
2018-07-27T17:21:12.799Z,9.30
2018-07-27T17:23:45.490Z,9.10
2018-07-27T17:29:11.162Z,8.35
2018-07-27T17:34:26.467Z,7.80
2018-07-27T17:36:55.072Z,10.20
2018-07-27T17:39:24.615Z,8.70
2018-07-27T17:41:55.258Z,8.70
2018-07-27T17:44:23.846Z,8.50
2018-07-27T17:46:52.030Z,9.07
2018-07-27T17:49:20.651Z,7.27
2018-07-27T17:51:49.221Z,9.10
2018-07-27T17:54:17.756Z,9.50
2018-07-27T17:56:46.352Z,8.40
2018-07-27T17:59:14.870Z,8.70
2018-07-27T18:01:43.487Z,8.23
2018-07-27T18:04:12.145Z,8.77
2018-07-27T18:06:40.692Z,8.40
2018-07-27T18:09:11.258Z,8.00
2018-07-27T18:11:40.051Z,8.30
2018-07-27T18:14:08.686Z,7.80
2018-07-27T18:16:37.160Z,8.50
2018-07-27T18:19:06.261Z,8.10
2018-07-27T18:21:34.787Z,8.65
2018-07-27T18:24:03.326Z,9.40
2018-07-27T18:26:31.892Z,8.97
2018-07-27T18:29:00.874Z,9.00
2018-07-27T18:33:57.350Z,9.30
2018-07-27T18:36:25.854Z,9.60
2018-07-27T18:38:54.488Z,9.80
2018-07-27T18:41:23.110Z,11.20
2018-07-27T18:43:51.825Z,10.50
2018-07-27T19:03:44.066Z,11.60
